createdAt,value
2023-04-13T00:00:46.742Z,100345.00
2023-04-13T00:05:40.342Z,100350.91
2023-04-13T00:10:36.347Z,100304.97
2023-04-13T00:15:29.732Z,100312.84
2023-04-13T00:20:24.415Z,100319.94
2023-04-13T00:25:18.103Z,100327.31
2023-04-13T00:30:13.119Z,100331.38
2023-04-13T00:35:09.617Z,100336.44
2023-04-13T00:40:05.909Z,100325.84
2023-04-13T00:44:59.059Z,100310.97
2023-04-13T00:49:53.151Z,100274.59
2023-04-13T00:54:46.461Z,100312.75
2023-04-13T00:59:41.072Z,100328.03
2023-04-13T01:04:38.110Z,100245.28
2023-04-13T01:09:36.307Z,100316.69
2023-04-13T01:14:37.529Z,100340.94
2023-04-13T01:19:51.654Z,100273.47
2023-04-13T01:24:53.708Z,100330.22
2023-04-13T01:29:49.006Z,100284.47
2023-04-13T01:34:42.164Z,100333.75
2023-04-13T01:39:35.657Z,100319.16
2023-04-13T01:44:38.248Z,100332.25
2023-04-13T01:49:33.964Z,100332.97
2023-04-13T01:54:43.756Z,100313.81
2023-04-13T01:59:37.799Z,100350.44
2023-04-13T02:04:32.440Z,100310.88
2023-04-13T02:09:28.315Z,100326.28
2023-04-13T02:14:21.763Z,100327.31
2023-04-13T02:19:16.275Z,100359.88
2023-04-13T02:24:10.985Z,100376.38
2023-04-13T02:29:05.761Z,100321.84
2023-04-13T02:33:59.382Z,100361.25
2023-04-13T02:38:53.211Z,100374.34
2023-04-13T02:43:56.021Z,100371.91
2023-04-13T02:48:51.919Z,100332.34
2023-04-13T02:53:45.777Z,100375.00
2023-04-13T02:58:39.367Z,100376.66
2023-04-13T03:03:41.452Z,100314.72
2023-04-13T03:08:35.842Z,100361.16
2023-04-13T03:13:33.818Z,100372.81
2023-04-13T03:18:27.681Z,100401.50
2023-04-13T03:23:22.810Z,100414.50
2023-04-13T03:28:16.103Z,100416.31
2023-04-13T03:33:11.774Z,100418.75
2023-04-13T03:38:05.946Z,100381.09
2023-04-13T03:43:04.795Z,100374.28
2023-04-13T03:48:01.960Z,100418.97
2023-04-13T03:52:55.364Z,100299.63
2023-04-13T03:57:49.858Z,100440.94
2023-04-13T04:02:49.494Z,100448.91
2023-04-13T04:07:51.678Z,100448.06
2023-04-13T04:12:44.980Z,100427.78
2023-04-13T04:17:40.080Z,100404.00
2023-04-13T04:22:36.726Z,100411.41
2023-04-13T04:27:37.937Z,100452.47
2023-04-13T04:32:34.589Z,100431.66
2023-04-13T04:37:30.003Z,100470.59
2023-04-13T04:42:30.165Z,100477.00
2023-04-13T04:47:30.210Z,100473.09
2023-04-13T04:52:34.344Z,100475.22
2023-04-13T04:57:31.560Z,100421.38
2023-04-13T05:02:24.891Z,100448.09
2023-04-13T05:07:19.107Z,100451.66
2023-04-13T05:12:12.591Z,100376.47
2023-04-13T05:17:10.351Z,100473.81
2023-04-13T05:22:06.500Z,100463.22
2023-04-13T05:27:08.484Z,100437.41
2023-04-13T05:32:03.199Z,100460.06
2023-04-13T05:36:58.310Z,100439.25
2023-04-13T05:41:51.791Z,100447.75
2023-04-13T05:46:45.927Z,100441.00
2023-04-13T05:51:40.110Z,100480.69
2023-04-13T05:56:35.529Z,100447.50
2023-04-13T06:01:29.727Z,100482.69
2023-04-13T06:06:23.340Z,100492.28
2023-04-13T06:11:17.046Z,100494.56
2023-04-13T06:16:12.003Z,100483.66
2023-04-13T06:21:05.623Z,100476.41
2023-04-13T06:25:59.391Z,100502.06
2023-04-13T06:31:13.757Z,100512.59
2023-04-13T06:36:12.017Z,100514.50
2023-04-13T06:41:06.963Z,100518.66
2023-04-13T06:46:05.386Z,100503.56
2023-04-13T06:51:03.676Z,100491.13
2023-04-13T06:56:01.787Z,100534.22
2023-04-13T07:00:56.623Z,100529.84
2023-04-13T07:05:51.213Z,100524.72
2023-04-13T07:10:54.260Z,100470.16
2023-04-13T07:16:05.146Z,100507.41
2023-04-13T07:21:03.924Z,100507.41
2023-04-13T07:26:07.418Z,100510.34
2023-04-13T07:31:06.649Z,100474.97
2023-04-13T07:36:00.436Z,100508.38
2023-04-13T07:40:59.354Z,100516.97
2023-04-13T07:45:56.554Z,100496.03
2023-04-13T07:50:53.588Z,100491.56
2023-04-13T07:55:50.016Z,100520.19
2023-04-13T08:00:43.403Z,100467.88
2023-04-13T08:05:37.570Z,100505.78
2023-04-13T08:10:47.581Z,100439.91
2023-04-13T08:16:02.829Z,100395.09
2023-04-13T08:21:03.876Z,100507.16
2023-04-13T08:26:20.910Z,100501.75
2023-04-13T08:31:52.116Z,100439.41
2023-04-13T08:36:52.772Z,100477.72
2023-04-13T08:41:48.866Z,100494.38
2023-04-13T08:46:46.817Z,100455.56
2023-04-13T08:51:54.761Z,100464.47
2023-04-13T08:56:50.359Z,100484.41
2023-04-13T09:01:50.552Z,100480.00
2023-04-13T09:06:51.455Z,100396.06
2023-04-13T09:11:49.159Z,100465.13
2023-04-13T09:16:49.963Z,100464.63
2023-04-13T09:22:27.164Z,100303.38
2023-04-13T09:27:36.251Z,100312.72
2023-04-13T09:33:05.708Z,100454.16
2023-04-13T09:44:27.395Z,100300.34
2023-04-13T09:49:22.747Z,100285.47
2023-04-13T09:54:22.181Z,100319.28
2023-04-13T09:59:16.026Z,100306.59
2023-04-13T10:04:10.675Z,100436.22
2023-04-13T10:09:06.141Z,100440.00
2023-04-13T10:14:02.890Z,100358.69
2023-04-13T10:19:02.019Z,100333.28
2023-04-13T10:23:57.069Z,100357.31
2023-04-13T10:28:51.947Z,100420.34
2023-04-13T10:33:49.594Z,100416.84
2023-04-13T10:38:49.256Z,100369.31
2023-04-13T10:43:45.006Z,100406.16
2023-04-13T10:48:44.221Z,100416.25
2023-04-13T10:53:37.928Z,100315.34
2023-04-13T10:58:34.672Z,100404.41
2023-04-13T11:03:29.279Z,100385.69
2023-04-13T11:08:28.204Z,100403.19
2023-04-13T11:13:32.300Z,100309.72
2023-04-13T11:18:29.172Z,100290.97
2023-04-13T11:23:24.461Z,100279.66
2023-04-13T11:28:19.606Z,100388.06
2023-04-13T11:33:13.114Z,100349.56
2023-04-13T11:38:06.871Z,100358.78
2023-04-13T11:43:03.537Z,100342.78
2023-04-13T11:48:00.750Z,100372.09
2023-04-13T11:52:57.024Z,100290.94
2023-04-13T11:57:50.884Z,100276.66
2023-04-13T12:02:59.968Z,100357.56
2023-04-13T12:07:58.660Z,100369.91
2023-04-13T12:13:16.958Z,100294.13
2023-04-13T12:18:15.974Z,100352.44
2023-04-13T12:23:23.413Z,100270.44
2023-04-13T12:28:19.710Z,100277.44
2023-04-13T12:33:13.637Z,100339.38
2023-04-13T12:38:09.958Z,100222.84
2023-04-13T12:43:05.283Z,100248.38
2023-04-13T12:47:58.853Z,100321.06
2023-04-13T12:52:53.778Z,100158.03
2023-04-13T12:57:47.305Z,100303.31
2023-04-13T13:02:42.399Z,100304.94
2023-04-13T13:07:36.893Z,100275.78
2023-04-13T13:12:32.269Z,100225.69
2023-04-13T13:17:25.821Z,100267.75
2023-04-13T13:22:20.655Z,100273.81
2023-04-13T13:27:50.653Z,100203.56
2023-04-13T13:32:34.305Z,100297.06
2023-04-13T13:37:29.075Z,100293.16
2023-04-13T13:42:22.386Z,100286.97
2023-04-13T13:47:16.166Z,100261.56
2023-04-13T13:52:15.945Z,100261.16
2023-04-13T13:57:17.512Z,100263.59
2023-04-13T14:02:11.097Z,100275.88
2023-04-13T14:07:06.668Z,100246.41
2023-04-13T14:12:02.097Z,100233.69
2023-04-13T14:16:56.840Z,100205.63
2023-04-13T14:21:50.532Z,100265.75
2023-04-13T14:26:43.720Z,100224.25
2023-04-13T14:31:39.597Z,100262.97
2023-04-13T14:36:34.501Z,100256.38
2023-04-13T14:41:31.065Z,100239.41
2023-04-13T14:46:24.369Z,100258.53
2023-04-13T14:51:18.558Z,100221.63
2023-04-13T14:56:13.058Z,100178.16
2023-04-13T15:01:19.923Z,100259.75
2023-04-13T15:06:14.181Z,100260.88
2023-04-13T15:11:07.832Z,100147.19
2023-04-13T15:16:02.714Z,100246.16
2023-04-13T15:20:55.960Z,100238.03
2023-04-13T15:25:49.375Z,100250.34
2023-04-13T15:30:43.335Z,100265.31
2023-04-13T15:35:37.910Z,100262.84
2023-04-13T15:40:33.985Z,100241.38
2023-04-13T15:45:27.208Z,100259.75
2023-04-13T15:50:20.531Z,100199.00
2023-04-13T15:55:15.499Z,100238.44
2023-04-13T16:00:09.773Z,100240.09
2023-04-13T16:05:03.208Z,100205.97
2023-04-13T16:09:58.354Z,100241.44
2023-04-13T16:14:56.000Z,100212.56
2023-04-13T16:19:51.839Z,100257.75
2023-04-13T16:24:45.094Z,100252.50
2023-04-13T16:29:41.508Z,100194.34
2023-04-13T16:34:41.253Z,100087.06
2023-04-13T16:39:34.428Z,100236.38
2023-04-13T16:44:27.660Z,100273.78
2023-04-13T16:49:20.825Z,100249.66
2023-04-13T16:54:17.933Z,100238.72
2023-04-13T16:59:11.105Z,100276.47
2023-04-13T17:04:04.355Z,100283.69
2023-04-13T17:09:00.434Z,100252.59
2023-04-13T17:13:55.511Z,100284.38
2023-04-13T17:18:48.856Z,100247.47
2023-04-13T17:23:43.589Z,100145.88
2023-04-13T17:28:39.727Z,100290.22
2023-04-13T17:33:34.885Z,100202.47
2023-04-13T17:38:31.027Z,100258.91
2023-04-13T17:43:24.263Z,100314.78
2023-04-13T17:48:21.098Z,100221.38
2023-04-13T17:53:15.823Z,100154.06
2023-04-13T17:58:10.842Z,100310.44
2023-04-13T18:03:05.664Z,100290.78
2023-04-13T18:08:01.456Z,100215.63
2023-04-13T18:13:00.526Z,100254.66
2023-04-13T18:17:56.908Z,100340.56
2023-04-13T18:22:50.271Z,100248.00
2023-04-13T18:27:44.146Z,100330.25
2023-04-13T18:32:38.751Z,100305.34
2023-04-13T18:37:37.704Z,100298.66
2023-04-13T18:42:32.631Z,100299.63
2023-04-13T18:47:27.133Z,100330.78
2023-04-13T18:52:23.896Z,100345.31
2023-04-13T18:57:17.184Z,100248.72
2023-04-13T19:02:10.711Z,100247.06
2023-04-13T19:07:08.933Z,100346.91
2023-04-13T19:12:03.941Z,100322.25
2023-04-13T19:16:59.988Z,100357.41
2023-04-13T19:21:57.019Z,100256.47
2023-04-13T19:26:53.020Z,100324.19
2023-04-13T19:31:48.487Z,100367.06
2023-04-13T19:36:42.816Z,100205.88
2023-04-13T19:41:38.624Z,100183.28
2023-04-13T19:46:32.876Z,100356.56
2023-04-13T19:51:28.000Z,100350.16
2023-04-13T19:56:35.181Z,100288.28
2023-04-13T20:01:33.793Z,100314.59
2023-04-13T20:06:28.628Z,100345.59
2023-04-13T20:11:22.021Z,100345.31
2023-04-13T20:16:18.725Z,100317.72
2023-04-13T20:21:21.386Z,100337.13
2023-04-13T20:26:16.154Z,100254.22
2023-04-13T20:31:09.536Z,100328.63
2023-04-13T20:36:03.495Z,100271.16
2023-04-13T20:40:57.627Z,100236.03
2023-04-13T20:45:53.192Z,100291.88
2023-04-13T20:50:48.205Z,100328.16
2023-04-13T20:55:42.267Z,100325.97
2023-04-13T21:00:35.801Z,100171.88
2023-04-13T21:05:33.007Z,100247.66
2023-04-13T21:10:26.422Z,100312.63
2023-04-13T21:15:25.244Z,100297.84
2023-04-13T21:20:18.530Z,100212.94
2023-04-13T21:25:13.344Z,100303.34
2023-04-13T21:30:07.881Z,100220.78
2023-04-13T21:35:01.262Z,100316.63
2023-04-13T21:39:54.940Z,100278.41
2023-04-13T21:44:52.717Z,100294.44
2023-04-13T21:49:45.991Z,100280.25
2023-04-13T21:54:39.178Z,100310.16
2023-04-13T21:59:32.492Z,100295.41
2023-04-13T22:04:27.384Z,100274.41
2023-04-13T22:09:20.966Z,100301.31
2023-04-13T22:14:14.229Z,100251.28
2023-04-13T22:19:07.482Z,100302.63
2023-04-13T22:24:02.143Z,100257.88
2023-04-13T22:28:55.793Z,100307.53
2023-04-13T22:33:49.083Z,100241.22
2023-04-13T22:38:42.286Z,100301.78
2023-04-13T22:43:37.049Z,100223.88
2023-04-13T22:48:30.998Z,100213.75
2023-04-13T22:53:24.235Z,100289.81
2023-04-13T22:58:17.633Z,100284.25
2023-04-13T23:03:13.252Z,100256.41
2023-04-13T23:08:06.649Z,100260.22
2023-04-13T23:13:00.461Z,100295.78
2023-04-13T23:17:55.804Z,100292.47
2023-04-13T23:22:50.829Z,100291.16
2023-04-13T23:27:44.050Z,100291.19
2023-04-13T23:32:37.540Z,100247.53
2023-04-13T23:37:30.883Z,100285.69
2023-04-13T23:42:25.820Z,100282.94
2023-04-13T23:47:19.022Z,100285.41
2023-04-13T23:52:12.236Z,100277.31
2023-04-13T23:57:05.599Z,100287.84
